createdAt,value
2023-03-13T00:01:32.680Z,6.42
2023-03-13T00:04:00.218Z,6.51
2023-03-13T00:06:32.382Z,6.50
2023-03-13T00:09:00.979Z,6.56
2023-03-13T00:11:28.932Z,6.56
2023-03-13T00:13:58.341Z,6.59
2023-03-13T00:16:27.813Z,6.63
2023-03-13T00:18:57.546Z,6.66
2023-03-13T00:21:28.422Z,6.65
2023-03-13T00:23:56.271Z,6.71
2023-03-13T00:26:26.330Z,6.72
2023-03-13T00:28:53.891Z,6.70
2023-03-13T00:31:29.740Z,6.72
2023-03-13T00:34:03.408Z,6.79
2023-03-13T00:36:35.246Z,6.78
2023-03-13T00:39:05.157Z,6.76
2023-03-13T00:41:34.019Z,6.77
2023-03-13T00:44:02.033Z,6.79
2023-03-13T00:46:30.849Z,6.78
2023-03-13T00:48:58.603Z,6.87
2023-03-13T00:51:28.802Z,6.87
2023-03-13T00:54:00.359Z,6.88
2023-03-13T00:56:28.420Z,6.89
2023-03-13T00:58:55.798Z,6.93
2023-03-13T01:01:31.052Z,6.91
2023-03-13T01:04:02.719Z,6.95
2023-03-13T01:06:32.871Z,6.92
2023-03-13T01:09:01.076Z,6.92
2023-03-13T01:11:32.729Z,6.97
2023-03-13T01:14:03.858Z,6.95
2023-03-13T01:16:34.591Z,6.99
2023-03-13T01:19:07.222Z,6.95
2023-03-13T01:21:35.093Z,6.95
2023-03-13T01:24:02.463Z,7.05
2023-03-13T01:26:30.060Z,7.03
2023-03-13T01:28:57.355Z,6.99
2023-03-13T01:31:31.733Z,7.03
2023-03-13T01:34:02.146Z,7.00
2023-03-13T01:36:29.922Z,7.09
2023-03-13T01:39:00.403Z,7.07
2023-03-13T01:41:30.325Z,7.07
2023-03-13T01:43:58.277Z,7.07
2023-03-13T01:46:28.122Z,7.12
2023-03-13T01:49:21.778Z,7.15
2023-03-13T01:51:58.255Z,7.11
2023-03-13T01:54:38.728Z,7.16
2023-03-13T01:57:28.093Z,7.20
2023-03-13T02:00:16.821Z,7.20
2023-03-13T02:02:50.620Z,7.22
2023-03-13T02:05:24.265Z,7.25
2023-03-13T02:08:01.942Z,7.24
2023-03-13T02:10:35.052Z,7.22
2023-03-13T02:13:02.932Z,7.35
2023-03-13T02:15:31.385Z,7.33
2023-03-13T02:18:00.161Z,7.32
2023-03-13T02:20:27.786Z,7.35
2023-03-13T02:23:20.461Z,7.38
2023-03-13T02:25:53.712Z,7.40
2023-03-13T02:28:29.385Z,7.39
2023-03-13T02:30:58.611Z,7.47
2023-03-13T02:33:38.961Z,7.43
2023-03-13T02:36:08.244Z,7.44
2023-03-13T02:38:45.935Z,7.44
2023-03-13T02:41:13.829Z,7.40
2023-03-13T02:43:41.059Z,7.46
2023-03-13T02:46:15.396Z,7.43
2023-03-13T02:48:47.145Z,7.44
2023-03-13T02:51:38.110Z,7.44
2023-03-13T02:54:12.088Z,7.47
2023-03-13T02:56:42.852Z,7.45
2023-03-13T02:59:10.137Z,7.43
2023-03-13T03:01:37.317Z,7.41
2023-03-13T03:04:04.667Z,7.39
2023-03-13T03:06:32.692Z,7.41
2023-03-13T03:08:59.907Z,7.38
2023-03-13T03:11:27.076Z,7.40
2023-03-13T03:13:54.776Z,7.39
2023-03-13T03:16:22.287Z,7.37
2023-03-13T03:18:49.461Z,7.39
2023-03-13T03:21:16.734Z,7.37
2023-03-13T03:23:43.905Z,7.36
2023-03-13T03:26:11.210Z,7.34
2023-03-13T03:28:38.355Z,7.36
2023-03-13T03:31:08.872Z,7.33
2023-03-13T03:33:37.045Z,7.36
2023-03-13T03:36:15.081Z,7.34
2023-03-13T03:38:43.471Z,7.34
2023-03-13T03:41:14.145Z,7.35
2023-03-13T03:43:42.013Z,7.37
2023-03-13T03:46:09.769Z,7.38
2023-03-13T03:48:37.607Z,7.35
2023-03-13T03:51:06.262Z,7.37
2023-03-13T03:53:33.439Z,7.42
2023-03-13T03:56:01.854Z,7.39
2023-03-13T03:58:29.032Z,7.48
2023-03-13T04:01:00.433Z,7.43
2023-03-13T04:03:27.724Z,7.43
2023-03-13T04:05:54.998Z,7.43
2023-03-13T04:08:22.751Z,7.47
2023-03-13T04:10:50.393Z,7.49
2023-03-13T04:13:17.700Z,7.47
2023-03-13T04:15:44.876Z,7.54
2023-03-13T04:18:12.183Z,7.50
2023-03-13T04:20:39.368Z,7.58
2023-03-13T04:23:06.600Z,7.54
2023-03-13T04:25:33.839Z,7.51
2023-03-13T04:28:01.197Z,7.57
2023-03-13T04:30:28.704Z,7.56
2023-03-13T04:32:56.111Z,7.57
2023-03-13T04:35:23.394Z,7.55
2023-03-13T04:37:50.614Z,7.56
2023-03-13T04:40:17.871Z,7.57
2023-03-13T04:42:45.134Z,7.58
2023-03-13T04:45:12.750Z,7.65
2023-03-13T04:47:40.116Z,7.61
2023-03-13T04:50:07.963Z,7.62
2023-03-13T04:52:35.150Z,7.65
2023-03-13T04:55:02.565Z,7.64
2023-03-13T04:57:30.075Z,7.66
2023-03-13T04:59:57.206Z,7.62
2023-03-13T05:02:24.486Z,7.63
2023-03-13T05:04:52.366Z,7.65
2023-03-13T05:07:19.687Z,7.69
2023-03-13T05:09:46.832Z,7.69
2023-03-13T05:12:14.059Z,7.70
2023-03-13T05:14:41.229Z,7.69
2023-03-13T05:17:08.418Z,7.67
2023-03-13T05:19:35.649Z,7.73
2023-03-13T05:22:02.788Z,7.74
2023-03-13T05:24:30.078Z,7.74
2023-03-13T05:26:57.270Z,7.78
2023-03-13T05:29:24.569Z,7.78
2023-03-13T05:31:51.663Z,7.75
2023-03-13T05:34:18.896Z,7.77
2023-03-13T05:36:46.038Z,7.82
2023-03-13T05:39:13.214Z,7.83
2023-03-13T05:41:40.370Z,7.79
2023-03-13T05:44:07.609Z,7.85
2023-03-13T05:46:34.810Z,7.84
2023-03-13T05:49:01.987Z,7.83
2023-03-13T05:51:29.198Z,7.85
2023-03-13T05:53:56.337Z,7.85
2023-03-13T05:56:23.473Z,7.86
2023-03-13T05:58:50.628Z,7.85
2023-03-13T06:01:17.828Z,7.91
2023-03-13T06:03:45.241Z,7.93
2023-03-13T06:06:12.437Z,7.96
2023-03-13T06:08:39.705Z,7.98
2023-03-13T06:11:06.871Z,8.00
2023-03-13T06:13:34.273Z,8.03
2023-03-13T06:16:01.981Z,8.05
2023-03-13T06:18:29.252Z,8.04
2023-03-13T06:21:01.432Z,8.04
2023-03-13T06:23:29.184Z,8.04
2023-03-13T06:25:56.646Z,8.08
2023-03-13T06:28:23.966Z,8.11
2023-03-13T06:30:51.143Z,8.07
2023-03-13T06:33:18.590Z,8.13
2023-03-13T06:35:56.214Z,8.16
2023-03-13T06:38:25.321Z,8.19
2023-03-13T06:40:52.674Z,8.18
2023-03-13T06:43:20.591Z,8.22
2023-03-13T06:45:47.868Z,8.28
2023-03-13T06:48:15.060Z,8.33
2023-03-13T06:50:43.129Z,8.37
2023-03-13T06:53:19.485Z,8.36
2023-03-13T06:55:48.257Z,8.42
2023-03-13T06:58:31.008Z,8.48
2023-03-13T07:01:10.490Z,8.49
2023-03-13T07:03:38.398Z,8.48
2023-03-13T07:06:06.082Z,8.52
2023-03-13T07:08:33.967Z,8.54
2023-03-13T07:11:08.056Z,8.58
2023-03-13T07:13:35.989Z,8.61
2023-03-13T07:16:07.371Z,8.63
2023-03-13T07:18:35.002Z,8.68
2023-03-13T07:21:07.388Z,8.63
2023-03-13T07:23:35.525Z,8.69
2023-03-13T07:26:06.886Z,8.72
2023-03-13T07:28:37.688Z,8.72
2023-03-13T07:31:12.433Z,8.74
2023-03-13T07:33:40.173Z,8.76
2023-03-13T07:36:08.373Z,8.79
2023-03-13T07:38:35.585Z,8.80
2023-03-13T07:41:03.879Z,8.80
2023-03-13T07:43:31.507Z,8.81
2023-03-13T07:46:05.901Z,8.88
2023-03-13T07:48:36.444Z,8.82
2023-03-13T07:51:05.839Z,8.90
2023-03-13T07:53:33.743Z,8.96
2023-03-13T07:56:07.735Z,8.95
2023-03-13T07:58:38.041Z,8.95
2023-03-13T08:01:26.065Z,8.97
2023-03-13T08:03:55.849Z,9.02
2023-03-13T08:06:25.750Z,9.07
2023-03-13T08:08:56.633Z,9.13
2023-03-13T08:11:26.747Z,9.12
2023-03-13T08:13:56.099Z,9.17
2023-03-13T08:16:29.489Z,9.18
2023-03-13T08:18:58.754Z,9.20
2023-03-13T08:21:34.748Z,9.25
2023-03-13T08:24:07.032Z,9.30
2023-03-13T08:26:38.101Z,9.33
2023-03-13T08:29:09.819Z,9.39
2023-03-13T08:31:52.517Z,9.47
2023-03-13T08:34:20.261Z,9.66
2023-03-13T08:36:47.801Z,9.60
2023-03-13T08:39:18.132Z,9.68
2023-03-13T08:41:46.221Z,9.73
2023-03-13T08:44:17.229Z,9.76
2023-03-13T08:46:44.923Z,9.84
2023-03-13T08:49:13.240Z,9.85
2023-03-13T08:51:40.794Z,9.94
2023-03-13T08:54:08.153Z,10.05
2023-03-13T08:56:35.500Z,10.13
2023-03-13T08:59:05.275Z,10.31
2023-03-13T09:01:35.708Z,10.28
2023-03-13T09:04:05.142Z,10.30
2023-03-13T09:06:34.769Z,10.21
2023-03-13T09:09:03.311Z,10.30
2023-03-13T09:11:30.677Z,10.30
2023-03-13T09:14:01.009Z,10.33
2023-03-13T09:16:31.519Z,10.38
2023-03-13T09:18:59.894Z,10.38
2023-03-13T09:21:33.801Z,10.45
2023-03-13T09:24:02.058Z,10.37
2023-03-13T09:26:29.980Z,10.34
2023-03-13T09:28:57.369Z,10.38
2023-03-13T09:31:29.790Z,10.47
2023-03-13T09:33:57.423Z,10.45
2023-03-13T09:36:26.069Z,10.42
2023-03-13T09:38:56.919Z,10.56
2023-03-13T09:41:51.231Z,10.65
2023-03-13T09:44:39.482Z,10.75
2023-03-13T09:47:30.169Z,10.96
2023-03-13T09:50:10.986Z,11.05
2023-03-13T09:52:41.920Z,11.19
2023-03-13T09:55:22.545Z,11.25
2023-03-13T09:58:16.390Z,11.29
2023-03-13T10:00:51.404Z,11.30
2023-03-13T10:03:29.634Z,11.39
2023-03-13T10:06:02.282Z,11.44
2023-03-13T10:08:35.126Z,11.49
2023-03-13T10:11:17.675Z,11.51
2023-03-13T10:13:55.511Z,11.63
2023-03-13T10:16:41.033Z,11.59
2023-03-13T10:19:17.194Z,11.66
2023-03-13T10:21:53.282Z,11.64
2023-03-13T10:24:36.968Z,11.70
2023-03-13T10:27:04.096Z,11.74
2023-03-13T10:29:32.146Z,11.71
2023-03-13T10:32:03.132Z,11.76
2023-03-13T10:34:50.883Z,11.92
2023-03-13T10:37:44.409Z,11.96
2023-03-13T10:40:14.271Z,11.99
2023-03-13T10:42:45.973Z,12.18
2023-03-13T10:45:20.109Z,12.30
2023-03-13T10:48:01.411Z,12.33
2023-03-13T10:50:35.584Z,12.38
2023-03-13T10:53:29.773Z,12.44
2023-03-13T10:56:12.830Z,12.53
2023-03-13T10:58:48.094Z,12.52
2023-03-13T11:01:20.537Z,12.56
2023-03-13T11:03:50.874Z,12.63
2023-03-13T11:06:32.005Z,12.73
2023-03-13T11:09:05.118Z,12.79
2023-03-13T11:11:52.651Z,12.79
2023-03-13T11:14:23.829Z,13.19
2023-03-13T11:17:05.266Z,13.55
2023-03-13T11:20:02.826Z,13.98
2023-03-13T11:22:47.255Z,14.27
2023-03-13T11:25:21.138Z,14.75
2023-03-13T11:28:29.871Z,14.68
2023-03-13T11:31:09.821Z,15.44
2023-03-13T11:34:06.617Z,15.21
2023-03-13T11:36:53.457Z,14.89
2023-03-13T11:39:48.764Z,14.78
2023-03-13T11:42:57.669Z,14.86
2023-03-13T11:45:49.840Z,14.47
2023-03-13T11:49:00.171Z,14.68
2023-03-13T11:52:09.596Z,14.67
2023-03-13T11:55:17.862Z,14.95
2023-03-13T11:58:25.953Z,15.02
2023-03-13T12:01:15.131Z,14.96
2023-03-13T12:04:05.504Z,14.77
2023-03-13T12:06:52.261Z,15.15
2023-03-13T12:09:37.200Z,15.46
2023-03-13T12:12:37.649Z,15.61
2023-03-13T12:15:13.955Z,15.35
2023-03-13T12:17:56.673Z,15.93
2023-03-13T12:20:44.443Z,16.26
2023-03-13T12:23:39.507Z,16.62
2023-03-13T12:26:15.416Z,16.54
2023-03-13T12:29:08.887Z,16.46
2023-03-13T12:32:11.584Z,16.31
2023-03-13T12:34:49.984Z,16.17
2023-03-13T12:37:41.754Z,15.88
2023-03-13T12:40:38.309Z,16.23
2023-03-13T12:43:08.431Z,16.19
2023-03-13T12:45:46.140Z,16.49
2023-03-13T12:48:50.211Z,16.09
2023-03-13T12:51:39.376Z,16.44
2023-03-13T12:54:24.316Z,16.52
2023-03-13T12:57:13.253Z,16.73
2023-03-13T12:59:46.424Z,17.06
2023-03-13T13:02:23.911Z,17.17
2023-03-13T13:04:54.843Z,17.19
2023-03-13T13:07:29.991Z,16.99
2023-03-13T13:10:09.085Z,17.14
2023-03-13T13:12:47.524Z,17.06
2023-03-13T13:15:26.864Z,17.19
2023-03-13T13:18:18.111Z,17.41
2023-03-13T13:21:10.020Z,17.16
2023-03-13T13:23:43.696Z,17.35
2023-03-13T13:26:36.783Z,17.37
2023-03-13T13:29:12.945Z,17.43
2023-03-13T13:31:52.265Z,16.97
2023-03-13T13:34:55.757Z,16.75
2023-03-13T13:37:22.898Z,16.73
2023-03-13T13:39:53.658Z,16.94
2023-03-13T13:42:30.653Z,17.05
2023-03-13T13:45:05.415Z,17.18
2023-03-13T13:47:33.803Z,17.10
2023-03-13T13:50:01.808Z,16.97
2023-03-13T13:52:39.196Z,16.86
2023-03-13T13:55:42.407Z,16.76
2023-03-13T13:58:27.132Z,16.64
2023-03-13T14:00:55.950Z,16.70
2023-03-13T14:03:31.610Z,16.71
2023-03-13T14:06:30.960Z,16.79
2023-03-13T14:09:17.029Z,16.78
2023-03-13T14:11:44.310Z,16.84
2023-03-13T14:14:22.015Z,16.96
2023-03-13T14:16:57.583Z,17.01
2023-03-13T14:19:34.078Z,17.06
2023-03-13T14:22:08.896Z,17.23
2023-03-13T14:24:38.211Z,17.13
2023-03-13T14:27:17.972Z,17.21
2023-03-13T14:30:07.072Z,17.28
2023-03-13T14:32:34.428Z,17.27
2023-03-13T14:35:05.783Z,17.38
2023-03-13T14:37:42.434Z,17.28
2023-03-13T14:40:23.060Z,17.25
2023-03-13T14:43:02.062Z,17.12
2023-03-13T14:45:33.544Z,17.27
2023-03-13T14:48:21.383Z,17.13
2023-03-13T14:50:53.145Z,16.86
2023-03-13T14:53:23.422Z,16.83
2023-03-13T14:56:14.067Z,16.80
2023-03-13T14:58:41.976Z,16.84
2023-03-13T15:01:23.897Z,16.72
2023-03-13T15:03:52.366Z,16.60
2023-03-13T15:06:23.018Z,16.56
2023-03-13T15:09:10.112Z,16.49
2023-03-13T15:11:54.986Z,16.51
2023-03-13T15:14:41.410Z,16.39
2023-03-13T15:17:28.215Z,16.38
2023-03-13T15:19:59.396Z,16.35
2023-03-13T15:22:33.327Z,16.29
2023-03-13T15:25:08.264Z,16.28
2023-03-13T15:27:35.893Z,16.34
2023-03-13T15:30:03.792Z,16.32
2023-03-13T15:32:36.342Z,16.26
2023-03-13T15:35:27.381Z,16.26
2023-03-13T15:37:56.391Z,16.22
2023-03-13T15:40:24.558Z,16.17
2023-03-13T15:42:52.892Z,16.15
2023-03-13T15:45:21.014Z,16.15
2023-03-13T15:47:48.830Z,16.00
2023-03-13T15:50:19.843Z,16.00
2023-03-13T15:52:47.266Z,15.94
2023-03-13T15:55:14.623Z,15.94
2023-03-13T15:57:47.123Z,15.96
2023-03-13T16:00:27.102Z,15.88
2023-03-13T16:02:54.302Z,15.86
2023-03-13T16:05:21.437Z,15.78
2023-03-13T16:07:48.620Z,15.84
2023-03-13T16:10:25.215Z,15.80
2023-03-13T16:12:54.505Z,15.77
2023-03-13T16:15:21.953Z,15.89
2023-03-13T16:17:49.105Z,15.86
2023-03-13T16:20:23.453Z,15.85
2023-03-13T16:22:53.338Z,15.80
2023-03-13T16:25:22.896Z,15.72
2023-03-13T16:27:50.318Z,15.74
2023-03-13T16:30:23.670Z,15.75
2023-03-13T16:32:51.370Z,15.65
2023-03-13T16:35:18.969Z,15.61
2023-03-13T16:37:46.252Z,15.58
2023-03-13T16:40:21.353Z,15.57
2023-03-13T16:42:48.769Z,15.50
2023-03-13T16:45:16.608Z,15.44
2023-03-13T16:47:45.611Z,15.38
2023-03-13T16:50:32.731Z,15.32
2023-03-13T16:53:00.107Z,15.27
2023-03-13T16:55:28.935Z,15.26
2023-03-13T16:57:59.732Z,15.22
2023-03-13T17:00:30.343Z,15.17
2023-03-13T17:02:58.191Z,15.12
2023-03-13T17:05:27.618Z,15.12
2023-03-13T17:07:55.228Z,15.00
2023-03-13T17:10:28.136Z,14.95
2023-03-13T17:12:55.844Z,14.89
2023-03-13T17:15:24.949Z,14.84
2023-03-13T17:17:53.961Z,14.77
2023-03-13T17:20:30.218Z,14.75
2023-03-13T17:22:58.290Z,14.70
2023-03-13T17:25:25.571Z,14.68
2023-03-13T17:27:53.508Z,14.56
2023-03-13T17:30:30.388Z,14.54
2023-03-13T17:32:59.089Z,14.51
2023-03-13T17:35:26.494Z,14.53
2023-03-13T17:37:53.654Z,14.46
2023-03-13T17:40:25.199Z,14.48
2023-03-13T17:42:52.693Z,14.37
2023-03-13T17:45:21.227Z,14.35
2023-03-13T17:47:51.434Z,14.36
2023-03-13T17:50:27.313Z,14.29
2023-03-13T17:52:55.534Z,14.27
2023-03-13T17:55:23.365Z,14.23
2023-03-13T17:57:52.097Z,14.20
2023-03-13T18:00:28.912Z,14.20
2023-03-13T18:02:56.606Z,14.14
2023-03-13T18:05:23.855Z,14.08
2023-03-13T18:07:55.062Z,14.02
2023-03-13T18:10:29.209Z,13.99
2023-03-13T18:12:57.508Z,13.94
2023-03-13T18:15:26.488Z,13.84
2023-03-13T18:17:54.029Z,13.89
2023-03-13T18:20:27.522Z,13.76
2023-03-13T18:22:59.281Z,13.70
2023-03-13T18:25:28.952Z,13.74
2023-03-13T18:27:56.189Z,13.65
2023-03-13T18:30:24.377Z,13.61
2023-03-13T18:32:51.948Z,13.66
2023-03-13T18:35:19.633Z,13.58
2023-03-13T18:37:48.175Z,13.57
2023-03-13T18:40:22.825Z,13.64
2023-03-13T18:42:50.592Z,13.62
2023-03-13T18:45:21.690Z,13.59
2023-03-13T18:47:48.858Z,13.87
2023-03-13T18:50:28.914Z,13.61
2023-03-13T18:52:59.541Z,13.44
2023-03-13T18:55:30.756Z,13.48
2023-03-13T18:57:58.090Z,13.46
2023-03-13T19:00:30.407Z,13.54
2023-03-13T19:02:57.604Z,13.50
2023-03-13T19:05:25.013Z,13.57
2023-03-13T19:07:52.239Z,13.46
2023-03-13T19:10:27.485Z,13.44
2023-03-13T19:12:56.452Z,13.44
2023-03-13T19:15:28.598Z,13.39
2023-03-13T19:17:58.465Z,13.32
2023-03-13T19:20:25.857Z,13.34
2023-03-13T19:22:54.544Z,13.34
2023-03-13T19:25:22.541Z,13.34
2023-03-13T19:27:49.689Z,13.29
2023-03-13T19:30:23.704Z,13.34
2023-03-13T19:32:51.555Z,13.29
2023-03-13T19:35:21.617Z,13.28
2023-03-13T19:37:49.290Z,13.25
2023-03-13T19:40:25.661Z,13.23
2023-03-13T19:42:52.935Z,13.29
2023-03-13T19:45:21.924Z,13.16
2023-03-13T19:47:49.458Z,13.14
2023-03-13T19:50:21.663Z,13.21
2023-03-13T19:52:49.059Z,13.20
2023-03-13T19:55:16.327Z,13.10
2023-03-13T19:57:43.698Z,13.11
2023-03-13T20:00:20.216Z,12.99
2023-03-13T20:02:47.472Z,12.96
2023-03-13T20:05:14.882Z,12.99
2023-03-13T20:07:42.142Z,13.07
2023-03-13T20:10:10.176Z,12.97
2023-03-13T20:12:37.367Z,13.02
2023-03-13T20:15:05.588Z,12.93
2023-03-13T20:17:32.761Z,12.93
2023-03-13T20:19:59.901Z,12.85
2023-03-13T20:22:27.134Z,13.01
2023-03-13T20:24:55.860Z,12.93
2023-03-13T20:27:23.080Z,12.95
2023-03-13T20:29:50.448Z,12.91
2023-03-13T20:32:17.772Z,12.91
2023-03-13T20:34:44.963Z,12.95
2023-03-13T20:37:12.526Z,12.95
2023-03-13T20:39:39.862Z,12.94
2023-03-13T20:42:08.818Z,12.94
2023-03-13T20:44:36.126Z,12.98
2023-03-13T20:47:03.358Z,12.98
2023-03-13T20:49:30.528Z,12.97
2023-03-13T20:51:57.845Z,12.93
2023-03-13T20:54:25.020Z,12.95
2023-03-13T20:56:52.169Z,12.93
2023-03-13T20:59:19.325Z,12.93
2023-03-13T21:01:46.591Z,13.04
2023-03-13T21:04:13.823Z,13.15
2023-03-13T21:06:41.726Z,13.07
2023-03-13T21:09:08.952Z,12.94
2023-03-13T21:11:36.192Z,12.97
2023-03-13T21:14:03.638Z,12.95
2023-03-13T21:16:30.909Z,13.00
2023-03-13T21:18:58.100Z,12.97
2023-03-13T21:21:25.342Z,12.86
2023-03-13T21:23:53.154Z,12.86
2023-03-13T21:26:20.722Z,12.91
2023-03-13T21:28:48.113Z,12.89
2023-03-13T21:31:18.094Z,12.87
2023-03-13T21:33:47.193Z,12.93
2023-03-13T21:36:17.415Z,12.79
2023-03-13T21:38:45.032Z,12.88
2023-03-13T21:41:20.033Z,12.79
2023-03-13T21:43:47.808Z,12.72
2023-03-13T21:46:17.894Z,12.78
2023-03-13T21:51:18.390Z,12.68
2023-03-13T21:53:46.060Z,12.75
2023-03-13T21:56:15.535Z,12.76
2023-03-13T21:58:46.649Z,12.74
2023-03-13T22:01:15.963Z,12.71
2023-03-13T22:03:43.532Z,12.81
2023-03-13T22:06:22.621Z,12.80
2023-03-13T22:08:50.763Z,12.71
2023-03-13T22:11:18.638Z,12.74
2023-03-13T22:13:46.339Z,12.75
2023-03-13T22:16:13.736Z,12.73
2023-03-13T22:18:43.109Z,12.63
2023-03-13T22:21:10.572Z,12.66
2023-03-13T22:23:37.780Z,12.68
2023-03-13T22:26:05.496Z,12.70
2023-03-13T22:28:32.894Z,12.53
2023-03-13T22:31:02.013Z,12.66
2023-03-13T22:33:29.347Z,12.62
2023-03-13T22:35:56.716Z,12.62
2023-03-13T22:38:24.117Z,12.65
2023-03-13T22:41:04.152Z,12.61
2023-03-13T22:43:31.483Z,12.61
2023-03-13T22:46:00.062Z,12.57
2023-03-13T22:48:27.664Z,12.55
2023-03-13T22:50:59.703Z,12.39
2023-03-13T22:53:27.019Z,12.47
2023-03-13T22:55:54.277Z,12.53
2023-03-13T22:58:21.535Z,12.49
2023-03-13T23:00:49.026Z,12.43
2023-03-13T23:03:17.789Z,12.35
2023-03-13T23:05:47.495Z,12.37
2023-03-13T23:08:16.863Z,12.15
2023-03-13T23:10:46.826Z,12.29
2023-03-13T23:13:15.112Z,12.22
2023-03-13T23:15:58.482Z,12.10
2023-03-13T23:18:27.836Z,12.08
2023-03-13T23:20:55.116Z,12.11
2023-03-13T23:23:22.626Z,12.09
2023-03-13T23:25:50.523Z,11.96
2023-03-13T23:28:17.851Z,12.02
2023-03-13T23:30:45.030Z,12.03
2023-03-13T23:33:12.201Z,12.13
2023-03-13T23:35:39.364Z,12.13
2023-03-13T23:38:06.609Z,12.12
2023-03-13T23:40:34.020Z,12.15
2023-03-13T23:43:01.998Z,12.17
2023-03-13T23:45:29.259Z,12.00
2023-03-13T23:47:56.918Z,12.07
2023-03-13T23:50:24.478Z,12.18
2023-03-13T23:52:51.734Z,12.13
2023-03-13T23:55:19.020Z,12.09
2023-03-13T23:57:50.531Z,12.07
